Airfield :
LOGIN :

Register | Disclaimer

   EN    FR    IT 

 










Legend :    VFR   Marginal VFR   IFR   Intensive IFR   Very Intensive IFR
Visi :
Ceiling :
>= 8 km
>= 3000ft
5 to 8 km
1000 to 3000 ft
1500m to 5 km
500 to 1000 ft
800 to 1500m
200 to 500 ft
< 800m
< 200 ft
Symbols :   Thunderstorms  Fog  Heavy snow  Heavy precipitations  Wind > 20 kt
SIGMETs :     Misc.  Thunderstorms  Icing  Turbulence  Mountain Waves  Volcanic Ashes






- Airport Elevation : 374 ft
- IATA code : LIS


LPPT - Lisboa Portela

CURRENT METAR :
  • 250100Z 34011KT 300V010 9999 BKN008 17/15 Q1011

EXPIRED METARs :
  • 250000Z 33011G21KT 290V360 9999 BKN008 17/15 Q1011
  • 242330Z 31015KT 9999 BKN008 17/15 Q1012
  • 242300Z 31018KT 9999 BKN006 17/15 Q1012
  • 242230Z 30020KT 9999 BKN006 17/15 Q1012
  • 242200Z 30017KT 9999 SCT007 17/15 Q1011
  • 242130Z 32016KT 290V350 9999 FEW008 17/15 Q1012
  • 242100Z 33015KT 9999 FEW008 17/15 Q1011
  • 242030Z 32019KT 9999 FEW008 17/15 Q1010

TAF TAF LPPT
Valid from the 25 at 00:00 until the 26 at 06:00 UTC


242300Z 2500/2606 32012KT 9999 SCT008
TEMPO 2500/2507 31017G27KT BKN004
BECMG 2507/2509 BKN020
BECMG 2510/2512 FEW025
BECMG 2600/2602 29008KT BKN008



MET'MAP, your aeronautical weather chart ! - Copyright ORBIFLY December 2007 - Disclaimer

ORBIFLY MET'MAP TEAM :

Programming & Development : Alexandra Zaïnal
Original concept : Baudouin d'Aumeries
Technical & hardware support : Manuel Goepfert
Assistance : Marc-Olivier Méhu




SOURCES & CREDITS :

   NOAA